Time;durP1;ratioP1;P1;durP2;ratioP2;P2;SDS_P1;SDS_P2;PMS_P1;PMS_P2;Temp;Humidity;BMP_temperature;BMP_pressure;BME280_temperature;BME280_humidity;BME280_pressure;Samples;Min_cycle;Max_cycle;Signal;HPM_P1;HPM_P2
2022/11/05 00:16:55;;;;;;;;;;;;;;;;;;5038646;28;7499;-87
2022/11/05 00:19:20;;;;;;;;;;;;;;;;;;5033505;28;7014;-86
2022/11/05 00:27:14;;;;;;;;;;;;;;;;;;5018072;28;6797;-87
2022/11/05 00:29:39;;;;;;;;;;;;;;;;;;5017090;28;7196;-86
2022/11/05 00:32:05;;;;;;;;;;;;;;;;;;5017082;28;8909;-86
2022/11/05 00:34:30;;;;;;;;;;;;;;;;;;5016846;28;8399;-86
2022/11/05 00:36:56;;;;;;;;;;;;;;;;;;5017841;28;7020;-86
2022/11/05 00:39:21;;;;;;;;;;;;;;;;;;5016885;28;8570;-86
2022/11/05 00:44:58;;;;;;;;;;;;;;;;;;5017166;28;8442;-86
2022/11/05 00:50:00;;;;;;;;;;;;;;;;;;5018119;28;6796;-87
2022/11/05 00:55:09;;;;;;;;;;;;;;;;;;5018294;28;6797;-86
2022/11/05 00:57:34;;;;;;;;;;;;;;;;;;5016190;28;7103;-85
2022/11/05 01:00:00;;;;;;;;;;;;;;;;;;5016863;28;7145;-86
2022/11/05 01:02:25;;;;;;;;;;;;;;;;;;5016867;28;8540;-86
2022/11/05 01:04:51;;;;;;;;;;;;;;;;;;5016206;28;7080;-86
2022/11/05 01:07:16;;;;;;;;;;;;;;;;;;5016686;28;8654;-86
2022/11/05 01:09:42;;;;;;;;;;;;;;;;;;5016355;28;7339;-87
2022/11/05 01:12:07;;;;;;;;;;;;;;;;;;5016252;28;8406;-87
2022/11/05 01:14:33;;;;;;;;;;;;;;;;;;5016880;28;8734;-86
2022/11/05 01:16:58;;;;;;;;;;;;;;;;;;5016233;28;8297;-86
2022/11/05 01:19:23;;;;;;;;;;;;;;;;;;5016024;28;8459;-88
2022/11/05 01:21:49;;;;;;;;;;;;;;;;;;5016172;28;8357;-87
2022/11/05 01:24:14;;;;;;;;;;;;;;;;;;5015911;28;7470;-87
2022/11/05 01:26:40;;;;;;;;;;;;;;;;;;5016382;28;8561;-87
2022/11/05 01:29:05;;;;;;;;;;;;;;;;;;5016196;28;8264;-87
2022/11/05 01:31:30;;;;;;;;;;;;;;;;;;5015895;28;8317;-86
2022/11/05 01:33:56;;;;;;;;;;;;;;;;;;5015775;28;7024;-86
2022/11/05 01:36:21;;;;;;;;;;;;;;;;;;5015821;28;8282;-87
2022/11/05 01:38:47;;;;;;;;;;;;;;;;;;5015885;28;7042;-87
2022/11/05 01:41:12;;;;;;;;;;;;;;;;;;5016222;28;7004;-87
2022/11/05 01:43:46;;;;;;;;;;;;;;;;;;5016250;28;8781;-87
2022/11/05 01:46:13;;;;;;;;;;;;;;;;;;5016276;28;7485;-87
2022/11/05 01:48:39;;;;;;;;;;;;;;;;;;5015896;28;8299;-86
2022/11/05 01:51:11;;;;;;;;;;;;;;;;;;5015785;28;7468;-86
2022/11/05 01:53:46;;;;;;;;;;;;;;;;;;5015450;28;8722;-86
2022/11/05 01:56:17;;;;;;;;;;;;;;;;;;5015463;28;7143;-86
2022/11/05 01:59:03;;;;;;;;;;;;;;;;;;5016049;28;8420;-87
2022/11/05 02:01:28;;;;;;;;;;;;;;;;;;5014885;28;8415;-86
2022/11/05 02:03:58;;;;;;;;;;;;;;;;;;5015496;28;8764;-86
2022/11/05 02:06:26;;;;;;;;;;;;;;;;;;5015809;28;8404;-87
2022/11/05 02:09:12;;;;;;;;;;;;;;;;;;5015492;28;8460;-86
2022/11/05 02:11:38;;;;;;;;;;;;;;;;;;5015829;28;7044;-87
2022/11/05 02:14:05;;;;;;;;;;;;;;;;;;5015556;28;8401;-87
2022/11/05 02:16:48;;;;;;;;;;;;;;;;;;5015152;28;8670;-87
2022/11/05 02:19:32;;;;;;;;;;;;;;;;;;5014825;28;7045;-87
2022/11/05 02:22:01;;;;;;;;;;;;;;;;;;5031269;28;8313;-87
2022/11/05 02:24:45;;;;;;;;;;;;;;;;;;5031337;28;8919;-87
2022/11/05 02:27:40;;;;;;;;;;;;;;;;;;5031296;28;7315;-87
2022/11/05 02:30:06;;;;;;;;;;;;;;;;;;5014567;28;7044;-87
2022/11/05 02:32:50;;;;;;;;;;;;;;;;;;5031804;28;8725;-87
2022/11/05 02:35:30;;;;;;;;;;;;;;;;;;5031823;28;8740;-86
2022/11/05 02:38:06;;;;;;;;;;;;;;;;;;5014537;28;6967;-86
2022/11/05 02:40:40;;;;;;;;;;;;;;;;;;5014648;28;7150;-86
2022/11/05 02:43:17;;;;;;;;;;;;;;;;;;5014939;28;7427;-87
2022/11/05 02:45:59;;;;;;;;;;;;;;;;;;5015089;28;7021;-86
2022/11/05 02:48:33;;;;;;;;;;;;;;;;;;5015454;28;8739;-87
2022/11/05 02:51:21;;;;;;;;;;;;;;;;;;5031268;28;8383;-85
2022/11/05 02:53:56;;;;;;;;;;;;;;;;;;5015233;28;8412;-86
2022/11/05 02:56:32;;;;;;;;;;;;;;;;;;5014827;28;8805;-87
2022/11/05 02:58:57;;;;;;;;;;;;;;;;;;5014575;28;7102;-87
2022/11/05 03:01:26;;;;;;;;;;;;;;;;;;5014363;28;7042;-87
2022/11/05 03:04:03;;;;;;;;;;;;;;;;;;5014465;28;8728;-86
2022/11/05 03:06:28;;;;;;;;;;;;;;;;;;5014790;28;8421;-86
2022/11/05 03:08:57;;;;;;;;;;;;;;;;;;5031037;28;6975;-86
2022/11/05 03:11:25;;;;;;;;;;;;;;;;;;5030741;28;7189;-87
2022/11/05 03:13:56;;;;;;;;;;;;;;;;;;5013924;28;8413;-86
2022/11/05 03:16:40;;;;;;;;;;;;;;;;;;5014399;28;8452;-86
2022/11/05 03:19:17;;;;;;;;;;;;;;;;;;5013828;28;7378;-86
2022/11/05 03:21:47;;;;;;;;;;;;;;;;;;5014475;28;6995;-86
2022/11/05 03:24:16;;;;;;;;;;;;;;;;;;5014437;28;8427;-86
2022/11/05 03:26:59;;;;;;;;;;;;;;;;;;5013853;28;7110;-86
2022/11/05 03:29:30;;;;;;;;;;;;;;;;;;5013965;28;8486;-86
2022/11/05 03:31:58;;;;;;;;;;;;;;;;;;5014175;28;8495;-87
2022/11/05 03:34:30;;;;;;;;;;;;;;;;;;5013853;28;7225;-86
2022/11/05 03:36:57;;;;;;;;;;;;;;;;;;5014498;28;8450;-87
2022/11/05 03:39:33;;;;;;;;;;;;;;;;;;5015635;28;7189;-87
2022/11/05 03:42:03;;;;;;;;;;;;;;;;;;5014178;28;8444;-86
2022/11/05 03:44:33;;;;;;;;;;;;;;;;;;5014307;28;8403;-86
2022/11/05 03:47:09;;;;;;;;;;;;;;;;;;5014550;28;8855;-86
2022/11/05 03:49:39;;;;;;;;;;;;;;;;;;5013942;28;8438;-86
2022/11/05 03:52:20;;;;;;;;;;;;;;;;;;5013719;28;8426;-87
2022/11/05 03:54:45;;;;;;;;;;;;;;;;;;5013971;28;8580;-86
2022/11/05 03:57:21;;;;;;;;;;;;;;;;;;5013462;28;7138;-86
2022/11/05 03:59:49;;;;;;;;;;;;;;;;;;5013763;28;8593;-87
2022/11/05 04:02:16;;;;;;;;;;;;;;;;;;5013834;28;8401;-86
2022/11/05 04:04:42;;;;;;;;;;;;;;;;;;5014445;28;7041;-87
2022/11/05 04:15:22;;;;;;;;;;;;;;;;;;5034470;28;6949;-87
2022/11/05 04:17:48;;;;;;;;;;;;;;;;;;5032980;28;8372;-86
2022/11/05 04:25:46;;;;;;;;;;;;;;;;;;5034447;28;6824;-86
2022/11/05 04:28:12;;;;;;;;;;;;;;;;;;5033615;28;7210;-86
2022/11/05 04:30:38;;;;;;;;;;;;;;;;;;5033360;28;8713;-86
2022/11/05 04:33:09;;;;;;;;;;;;;;;;;;5032803;28;8318;-86
2022/11/05 04:35:39;;;;;;;;;;;;;;;;;;5032941;28;8670;-87
2022/11/05 04:38:07;;;;;;;;;;;;;;;;;;5033989;28;8727;-86
2022/11/05 04:40:33;;;;;;;;;;;;;;;;;;5036686;28;8445;-86
2022/11/05 04:42:59;;;;;;;;;;;;;;;;;;5036873;28;8493;-87
2022/11/05 04:45:26;;;;;;;;;;;;;;;;;;5036875;28;8463;-87
2022/11/05 04:47:52;;;;;;;;;;;;;;;;;;5036521;28;8412;-86
2022/11/05 04:50:17;;;;;;;;;;;;;;;;;;5036418;28;7133;-86
2022/11/05 04:52:43;;;;;;;;;;;;;;;;;;5037353;28;7393;-86
2022/11/05 04:55:09;;;;;;;;;;;;;;;;;;5036732;28;8373;-86
2022/11/05 04:57:35;;;;;;;;;;;;;;;;;;5036765;28;7235;-86
2022/11/05 05:00:01;;;;;;;;;;;;;;;;;;5036589;28;8418;-86
2022/11/05 05:02:27;;;;;;;;;;;;;;;;;;5036368;28;8409;-86
2022/11/05 05:04:52;;;;;;;;;;;;;;;;;;5037009;28;9287;-86
2022/11/05 05:07:18;;;;;;;;;;;;;;;;;;5036032;28;7165;-86
2022/11/05 05:09:43;;;;;;;;;;;;;;;;;;5036290;28;8557;-86
2022/11/05 05:12:09;;;;;;;;;;;;;;;;;;5035908;28;7140;-86
2022/11/05 05:14:34;;;;;;;;;;;;;;;;;;5036144;28;7253;-87
2022/11/05 05:17:00;;;;;;;;;;;;;;;;;;5035943;28;8462;-86
2022/11/05 05:19:25;;;;;;;;;;;;;;;;;;5035813;28;7140;-87
2022/11/05 05:21:51;;;;;;;;;;;;;;;;;;5035954;28;7288;-87
2022/11/05 05:24:18;;;;;;;;;;;;;;;;;;5036276;28;8499;-86
2022/11/05 05:26:45;;;;;;;;;;;;;;;;;;5035721;28;8324;-87
2022/11/05 05:29:11;;;;;;;;;;;;;;;;;;5036001;28;8511;-86
2022/11/05 05:31:37;;;;;;;;;;;;;;;;;;5036082;28;7417;-86
2022/11/05 05:34:04;;;;;;;;;;;;;;;;;;5035704;28;8422;-87
2022/11/05 05:36:30;;;;;;;;;;;;;;;;;;5035535;28;8961;-86
2022/11/05 05:38:56;;;;;;;;;;;;;;;;;;5035503;28;7327;-87
2022/11/05 05:41:21;;;;;;;;;;;;;;;;;;5035657;28;8619;-87
2022/11/05 05:43:47;;;;;;;;;;;;;;;;;;5035605;28;7236;-87
2022/11/05 05:46:14;;;;;;;;;;;;;;;;;;5035440;28;8408;-86
2022/11/05 05:48:40;;;;;;;;;;;;;;;;;;5035488;28;8433;-86
2022/11/05 05:51:07;;;;;;;;;;;;;;;;;;5034752;28;7153;-87
2022/11/05 05:53:33;;;;;;;;;;;;;;;;;;5035499;28;7061;-87
2022/11/05 05:56:02;;;;;;;;;;;;;;;;;;5035147;28;8465;-87
2022/11/05 05:58:35;;;;;;;;;;;;;;;;;;5035361;28;8485;-87
2022/11/05 06:01:02;;;;;;;;;;;;;;;;;;5035013;28;8446;-87
2022/11/05 06:03:27;;;;;;;;;;;;;;;;;;5035265;28;8662;-87
2022/11/05 06:05:58;;;;;;;;;;;;;;;;;;5035328;28;8714;-88
2022/11/05 06:08:23;;;;;;;;;;;;;;;;;;5035089;28;8693;-87
2022/11/05 06:10:50;;;;;;;;;;;;;;;;;;5035263;28;8369;-86
2022/11/05 06:13:15;;;;;;;;;;;;;;;;;;5035662;28;7069;-87
2022/11/05 06:15:41;;;;;;;;;;;;;;;;;;5035297;28;8432;-87
2022/11/05 06:18:06;;;;;;;;;;;;;;;;;;5034767;28;7104;-87
2022/11/05 06:20:31;;;;;;;;;;;;;;;;;;5034984;28;7152;-87
2022/11/05 06:22:57;;;;;;;;;;;;;;;;;;5034740;28;8368;-87
2022/11/05 06:25:23;;;;;;;;;;;;;;;;;;5034852;28;8377;-87
2022/11/05 06:27:49;;;;;;;;;;;;;;;;;;5034616;28;8730;-87
2022/11/05 06:30:15;;;;;;;;;;;;;;;;;;5034940;28;8702;-87
2022/11/05 06:32:41;;;;;;;;;;;;;;;;;;5021940;28;8407;-87
2022/11/05 06:35:07;;;;;;;;;;;;;;;;;;5002317;28;7033;-88
2022/11/05 06:37:33;;;;;;;;;;;;;;;;;;5011421;28;7145;-87
2022/11/05 06:39:58;;;;;;;;;;;;;;;;;;5011164;28;8408;-88
2022/11/05 06:42:24;;;;;;;;;;;;;;;;;;5011646;28;7013;-86
2022/11/05 06:44:51;;;;;;;;;;;;;;;;;;5024772;28;8733;-82
2022/11/05 06:47:18;;;;;;;;;;;;;;;;;;5014686;28;7254;-86
2022/11/05 06:49:44;;;;;;;;;;;;;;;;;;5014323;28;8569;-88
2022/11/05 06:52:09;;;;;;;;;;;;;;;;;;5014628;28;8417;-87
2022/11/05 06:54:34;;;;;;;;;;;;;;;;;;5014644;28;6995;-87
2022/11/05 06:57:00;;;;;;;;;;;;;;;;;;5014281;28;7414;-87
2022/11/05 06:59:25;;;;;;;;;;;;;;;;;;5014286;28;8863;-87
2022/11/05 07:01:51;;;;;;;;;;;;;;;;;;5013812;28;8423;-87
2022/11/05 07:04:16;;;;;;;;;;;;;;;;;;5014448;28;8489;-87
2022/11/05 07:06:42;;;;;;;;;;;;;;;;;;5014243;28;8467;-87
2022/11/05 07:09:07;;;;;;;;;;;;;;;;;;5014163;28;7295;-87
2022/11/05 07:11:33;;;;;;;;;;;;;;;;;;5014019;28;8357;-87
2022/11/05 07:14:00;;;;;;;;;;;;;;;;;;5014079;28;7001;-87
2022/11/05 07:16:25;;;;;;;;;;;;;;;;;;5013986;28;7338;-87
2022/11/05 07:18:51;;;;;;;;;;;;;;;;;;5014063;28;8506;-88
2022/11/05 07:21:18;;;;;;;;;;;;;;;;;;5014950;28;7053;-88
2022/11/05 07:23:44;;;;;;;;;;;;;;;;;;5014531;28;7059;-87
2022/11/05 07:26:09;;;;;;;;;;;;;;;;;;5013829;28;8452;-88
2022/11/05 07:28:35;;;;;;;;;;;;;;;;;;5014024;28;7107;-88
2022/11/05 07:31:01;;;;;;;;;;;;;;;;;;5014487;28;8782;-87
2022/11/05 07:33:26;;;;;;;;;;;;;;;;;;5014196;28;8325;-87
2022/11/05 07:35:54;;;;;;;;;;;;;;;;;;5014255;28;7143;-88
2022/11/05 07:38:20;;;;;;;;;;;;;;;;;;5014640;28;7017;-87
2022/11/05 07:40:45;;;;;;;;;;;;;;;;;;5013832;28;8422;-86
2022/11/05 07:43:11;;;;;;;;;;;;;;;;;;5014298;28;7213;-84
2022/11/05 07:45:37;;;;;;;;;;;;;;;;;;5013905;28;7348;-86
2022/11/05 07:48:03;;;;;;;;;;;;;;;;;;5013713;28;8294;-86
2022/11/05 07:50:30;;;;;;;;;;;;;;;;;;5013586;28;7400;-86
2022/11/05 07:53:04;;;;;;;;;;;;;;;;;;5013492;28;8638;-85
2022/11/05 07:55:29;;;;;;;;;;;;;;;;;;5030197;28;8416;-85
2022/11/05 07:57:55;;;;;;;;;;;;;;;;;;5014145;28;7028;-85
2022/11/05 08:00:22;;;;;;;;;;;;;;;;;;5014099;28;8415;-85
2022/11/05 08:03:00;;;;;;;;;;;;;;;;;;5013727;28;7322;-86
2022/11/05 08:05:27;;;;;;;;;;;;;;;;;;5013611;28;8366;-86
2022/11/05 08:07:54;;;;;;;;;;;;;;;;;;5013860;28;8428;-86
2022/11/05 08:10:20;;;;;;;;;;;;;;;;;;5013611;28;8354;-85
2022/11/05 08:12:45;;;;;;;;;;;;;;;;;;5013509;28;8364;-86
2022/11/05 08:15:11;;;;;;;;;;;;;;;;;;5017289;28;8699;-85
2022/11/05 08:17:36;;;;;;;;;;;;;;;;;;5017412;28;8498;-85
2022/11/05 08:20:02;;;;;;;;;;;;;;;;;;5017411;28;8424;-85
2022/11/05 08:22:28;;;;;;;;;;;;;;;;;;5017345;28;8620;-86
2022/11/05 08:24:53;;;;;;;;;;;;;;;;;;5017601;28;8412;-85
2022/11/05 08:27:19;;;;;;;;;;;;;;;;;;5017064;28;8584;-86
2022/11/05 08:29:44;;;;;;;;;;;;;;;;;;5017408;28;7133;-86
2022/11/05 08:32:10;;;;;;;;;;;;;;;;;;5016757;28;8728;-86
2022/11/05 08:34:35;;;;;;;;;;;;;;;;;;5016883;28;7090;-86
2022/11/05 08:37:01;;;;;;;;;;;;;;;;;;5016860;28;8403;-86
2022/11/05 08:39:26;;;;;;;;;;;;;;;;;;5017203;28;7337;-86
2022/11/05 08:41:52;;;;;;;;;;;;;;;;;;5016828;28;8724;-85
2022/11/05 08:44:17;;;;;;;;;;;;;;;;;;5016851;28;8418;-86
2022/11/05 08:46:42;;;;;;;;;;;;;;;;;;5016864;28;7029;-85
2022/11/05 08:49:08;;;;;;;;;;;;;;;;;;5016827;28;7120;-86
2022/11/05 08:51:33;;;;;;;;;;;;;;;;;;5017470;28;7032;-86
2022/11/05 08:53:59;;;;;;;;;;;;;;;;;;5016940;28;7389;-86
2022/11/05 08:56:24;;;;;;;;;;;;;;;;;;5016700;28;6997;-85
2022/11/05 08:58:50;;;;;;;;;;;;;;;;;;5016955;28;8444;-85
2022/11/05 09:01:16;;;;;;;;;;;;;;;;;;5016652;28;8297;-85
2022/11/05 09:03:41;;;;;;;;;;;;;;;;;;5016496;28;7573;-85
2022/11/05 09:06:07;;;;;;;;;;;;;;;;;;5016381;28;8421;-85
2022/11/05 09:08:33;;;;;;;;;;;;;;;;;;5016833;28;8703;-85
2022/11/05 09:10:59;;;;;;;;;;;;;;;;;;5016542;28;8465;-86
2022/11/05 09:13:25;;;;;;;;;;;;;;;;;;5015941;28;8428;-85
2022/11/05 09:15:50;;;;;;;;;;;;;;;;;;5015824;28;8642;-85
2022/11/05 09:18:17;;;;;;;;;;;;;;;;;;5016251;28;7411;-85
2022/11/05 09:20:43;;;;;;;;;;;;;;;;;;5015517;28;8307;-85
2022/11/05 09:23:10;;;;;;;;;;;;;;;;;;5015926;28;8667;-85
2022/11/05 09:25:35;;;;;;;;;;;;;;;;;;5015504;28;7135;-85
2022/11/05 09:28:05;;;;;;;;;;;;;;;;;;5016375;28;7051;-85
2022/11/05 09:30:31;;;;;;;;;;;;;;;;;;5016016;28;8420;-85
2022/11/05 09:32:56;;;;;;;;;;;;;;;;;;5015852;28;7103;-85
2022/11/05 09:35:22;;;;;;;;;;;;;;;;;;5015290;28;7105;-86
2022/11/05 09:37:47;;;;;;;;;;;;;;;;;;5015839;28;8410;-86
2022/11/05 09:40:17;;;;;;;;;;;;;;;;;;5017135;28;8393;-86
2022/11/05 09:42:49;;;;;;;;;;;;;;;;;;5015690;28;7254;-85
2022/11/05 09:45:18;;;;;;;;;;;;;;;;;;5016175;28;8819;-85
2022/11/05 09:47:57;;;;;;;;;;;;;;;;;;5015743;28;7238;-86
2022/11/05 09:50:30;;;;;;;;;;;;;;;;;;5015173;28;7434;-85
2022/11/05 09:52:55;;;;;;;;;;;;;;;;;;5032190;28;8301;-85
2022/11/05 09:55:27;;;;;;;;;;;;;;;;;;5015979;28;8383;-85
2022/11/05 09:57:56;;;;;;;;;;;;;;;;;;5015241;28;8377;-86
2022/11/05 10:00:22;;;;;;;;;;;;;;;;;;5015579;28;8420;-85
2022/11/05 10:02:59;;;;;;;;;;;;;;;;;;5016075;28;8455;-85
2022/11/05 10:05:26;;;;;;;;;;;;;;;;;;5015378;28;8460;-85
2022/11/05 10:07:58;;;;;;;;;;;;;;;;;;5015591;28;8421;-84
2022/11/05 10:10:27;;;;;;;;;;;;;;;;;;5016060;28;8459;-85
2022/11/05 10:12:58;;;;;;;;;;;;;;;;;;5016300;28;8368;-85
2022/11/05 10:15:28;;;;;;;;;;;;;;;;;;5032813;28;7244;-85
2022/11/05 10:18:01;;;;;;;;;;;;;;;;;;5015742;28;8311;-85
2022/11/05 10:20:32;;;;;;;;;;;;;;;;;;5031763;28;8996;-84
2022/11/05 10:23:08;;;;;;;;;;;;;;;;;;5015581;28;7164;-85
2022/11/05 10:25:38;;;;;;;;;;;;;;;;;;5025633;28;8466;-85
2022/11/05 10:28:04;;;;;;;;;;;;;;;;;;5033904;28;8517;-84
2022/11/05 10:30:31;;;;;;;;;;;;;;;;;;5034457;28;7390;-85
2022/11/05 10:33:00;;;;;;;;;;;;;;;;;;5034555;28;8429;-85
2022/11/05 10:35:28;;;;;;;;;;;;;;;;;;5034890;28;8497;-85
2022/11/05 10:37:55;;;;;;;;;;;;;;;;;;5034641;28;8448;-85
2022/11/05 10:40:35;;;;;;;;;;;;;;;;;;5034510;28;7226;-85
2022/11/05 10:43:09;;;;;;;;;;;;;;;;;;5034861;28;7416;-85
2022/11/05 10:45:51;;;;;;;;;;;;;;;;;;5034476;28;8306;-85
2022/11/05 10:48:29;;;;;;;;;;;;;;;;;;5034421;28;8932;-86
2022/11/05 10:50:56;;;;;;;;;;;;;;;;;;5050752;28;8706;-84
2022/11/05 10:53:26;;;;;;;;;;;;;;;;;;5034631;28;8627;-85
2022/11/05 10:55:52;;;;;;;;;;;;;;;;;;5034697;28;8778;-85
2022/11/05 10:58:18;;;;;;;;;;;;;;;;;;5033997;28;8502;-85
2022/11/05 11:00:49;;;;;;;;;;;;;;;;;;5051204;28;8320;-85
2022/11/05 11:03:34;;;;;;;;;;;;;;;;;;5050685;28;7217;-85
2022/11/05 11:06:01;;;;;;;;;;;;;;;;;;5051434;28;8474;-86
2022/11/05 11:08:27;;;;;;;;;;;;;;;;;;5034349;28;6973;-85
2022/11/05 11:10:58;;;;;;;;;;;;;;;;;;5033986;28;8259;-85
2022/11/05 11:13:25;;;;;;;;;;;;;;;;;;5034160;28;8488;-85
2022/11/05 11:15:51;;;;;;;;;;;;;;;;;;5034352;28;7103;-85
2022/11/05 11:18:49;;;;;;;;;;;;;;;;;;5034045;28;8342;-85
2022/11/05 11:21:18;;;;;;;;;;;;;;;;;;5039125;28;7209;-86
2022/11/05 11:23:53;;;;;;;;;;;;;;;;;;5033707;28;8833;-85
2022/11/05 11:26:20;;;;;;;;;;;;;;;;;;5033559;28;8441;-85
2022/11/05 11:28:51;;;;;;;;;;;;;;;;;;5033821;28;8723;-85
2022/11/05 11:31:21;;;;;;;;;;;;;;;;;;5033827;28;8493;-85
2022/11/05 11:33:51;;;;;;;;;;;;;;;;;;5033921;28;7413;-85
2022/11/05 11:36:23;;;;;;;;;;;;;;;;;;5033461;28;8599;-85
2022/11/05 11:38:49;;;;;;;;;;;;;;;;;;5034283;28;8347;-85
2022/11/05 11:41:34;;;;;;;;;;;;;;;;;;5033496;28;8342;-85
2022/11/05 11:44:04;;;;;;;;;;;;;;;;;;5033882;28;9063;-86
2022/11/05 11:46:31;;;;;;;;;;;;;;;;;;5033436;28;8384;-86
2022/11/05 11:48:58;;;;;;;;;;;;;;;;;;5033308;28;8349;-85
2022/11/05 11:51:33;;;;;;;;;;;;;;;;;;5006417;28;8643;-82
2022/11/05 11:54:00;;;;;;;;;;;;;;;;;;5015132;28;8431;-85
2022/11/05 11:56:27;;;;;;;;;;;;;;;;;;5008891;28;8279;-85
2022/11/05 11:58:55;;;;;;;;;;;;;;;;;;5012768;28;8316;-85
2022/11/05 12:01:39;;;;;;;;;;;;;;;;;;5029501;28;7402;-85
2022/11/05 12:04:17;;;;;;;;;;;;;;;;;;5029519;28;8416;-84
2022/11/05 12:07:02;;;;;;;;;;;;;;;;;;5013330;28;8653;-85
2022/11/05 12:09:33;;;;;;;;;;;;;;;;;;5014081;28;8639;-84
2022/11/05 12:12:04;;;;;;;;;;;;;;;;;;5014302;28;7608;-85
2022/11/05 12:14:48;;;;;;;;;;;;;;;;;;5012682;28;8706;-84
2022/11/05 12:17:28;;;;;;;;;;;;;;;;;;5013389;28;8476;-85
2022/11/05 12:19:53;;;;;;;;;;;;;;;;;;5013190;28;7077;-84
2022/11/05 12:22:42;;;;;;;;;;;;;;;;;;5013497;28;8473;-85
2022/11/05 12:25:11;;;;;;;;;;;;;;;;;;5013382;28;9589;-85
2022/11/05 12:27:58;;;;;;;;;;;;;;;;;;5013652;28;7409;-85
2022/11/05 12:30:24;;;;;;;;;;;;;;;;;;5013690;28;8605;-86
2022/11/05 12:33:08;;;;;;;;;;;;;;;;;;5013407;28;8447;-85
2022/11/05 12:35:44;;;;;;;;;;;;;;;;;;5012878;28;8774;-86
2022/11/05 12:38:19;;;;;;;;;;;;;;;;;;5013524;28;7335;-85
2022/11/05 12:41:03;;;;;;;;;;;;;;;;;;5011222;28;8495;-86
2022/11/05 12:43:31;;;;;;;;;;;;;;;;;;5028764;28;7267;-86
2022/11/05 12:46:14;;;;;;;;;;;;;;;;;;5029533;28;8488;-85
2022/11/05 12:48:58;;;;;;;;;;;;;;;;;;5029558;28;8795;-85
2022/11/05 12:51:33;;;;;;;;;;;;;;;;;;5029527;28;7333;-85
2022/11/05 12:54:14;;;;;;;;;;;;;;;;;;5029878;28;8444;-85
2022/11/05 12:56:44;;;;;;;;;;;;;;;;;;5029372;28;7183;-85
2022/11/05 12:59:16;;;;;;;;;;;;;;;;;;5029478;28;8495;-84
2022/11/05 13:01:53;;;;;;;;;;;;;;;;;;5032200;28;7055;-86
2022/11/05 13:04:39;;;;;;;;;;;;;;;;;;5033262;28;8515;-86
2022/11/05 13:07:09;;;;;;;;;;;;;;;;;;5032540;28;8418;-85
2022/11/05 13:09:50;;;;;;;;;;;;;;;;;;5033383;28;8417;-77
2022/11/05 13:12:20;;;;;;;;;;;;;;;;;;5033238;28;8444;-85
2022/11/05 13:15:01;;;;;;;;;;;;;;;;;;5033177;28;7592;-85
2022/11/05 13:17:31;;;;;;;;;;;;;;;;;;5032849;28;8369;-86
2022/11/05 13:20:13;;;;;;;;;;;;;;;;;;5032845;28;8646;-86
2022/11/05 13:22:43;;;;;;;;;;;;;;;;;;5032923;28;8485;-85
2022/11/05 13:25:18;;;;;;;;;;;;;;;;;;5016573;28;8647;-85
2022/11/05 13:27:52;;;;;;;;;;;;;;;;;;5032396;28;8531;-85
2022/11/05 13:30:29;;;;;;;;;;;;;;;;;;5032243;28;8480;-86
2022/11/05 13:33:02;;;;;;;;;;;;;;;;;;5033041;28;7179;-85
2022/11/05 13:35:41;;;;;;;;;;;;;;;;;;5032418;28;8438;-85
2022/11/05 13:41:19;;;;;;;;;;;;;;;;;;5017362;28;6806;-85
2022/11/05 13:43:57;;;;;;;;;;;;;;;;;;5032654;28;8496;-85
2022/11/05 13:46:37;;;;;;;;;;;;;;;;;;5032231;28;7903;-86
2022/11/05 13:49:22;;;;;;;;;;;;;;;;;;5033088;28;8528;-84
2022/11/05 13:51:53;;;;;;;;;;;;;;;;;;5032491;28;8915;-87
2022/11/05 13:54:37;;;;;;;;;;;;;;;;;;5032046;28;8869;-86
2022/11/05 13:57:21;;;;;;;;;;;;;;;;;;5032301;28;8408;-85
2022/11/05 14:00:10;;;;;;;;;;;;;;;;;;5031936;28;7139;-85
2022/11/05 14:02:35;;;;;;;;;;;;;;;;;;5031438;28;8663;-86
2022/11/05 14:05:02;;;;;;;;;;;;;;;;;;5032189;28;8336;-86
2022/11/05 14:07:37;;;;;;;;;;;;;;;;;;5031532;28;8524;-86
2022/11/05 14:10:16;;;;;;;;;;;;;;;;;;5024943;28;7062;-85
2022/11/05 14:12:48;;;;;;;;;;;;;;;;;;5027914;28;8533;-85
2022/11/05 14:15:25;;;;;;;;;;;;;;;;;;5005126;28;7003;-85
2022/11/05 14:17:57;;;;;;;;;;;;;;;;;;5011055;28;7246;-84
2022/11/05 14:20:23;;;;;;;;;;;;;;;;;;5030488;28;8446;-85
2022/11/05 14:22:48;;;;;;;;;;;;;;;;;;5023564;28;8502;-83
2022/11/05 14:25:17;;;;;;;;;;;;;;;;;;5030991;28;8472;-84
2022/11/05 14:27:45;;;;;;;;;;;;;;;;;;5031278;28;8722;-84
2022/11/05 14:30:29;;;;;;;;;;;;;;;;;;5031218;28;8638;-85
2022/11/05 14:33:02;;;;;;;;;;;;;;;;;;5030608;28;8299;-84
2022/11/05 14:35:37;;;;;;;;;;;;;;;;;;5030605;28;6996;-83
2022/11/05 14:38:23;;;;;;;;;;;;;;;;;;5031993;28;7098;-87
2022/11/05 14:40:58;;;;;;;;;;;;;;;;;;5030315;28;6850;-85
2022/11/05 14:43:26;;;;;;;;;;;;;;;;;;5030057;28;8422;-84
2022/11/05 14:45:59;;;;;;;;;;;;;;;;;;5030596;28;8423;-85
2022/11/05 14:48:34;;;;;;;;;;;;;;;;;;5030933;28;7188;-85
2022/11/05 14:51:01;;;;;;;;;;;;;;;;;;5013778;28;8366;-84
2022/11/05 14:53:35;;;;;;;;;;;;;;;;;;5014060;28;7414;-87
2022/11/05 14:56:04;;;;;;;;;;;;;;;;;;5013838;28;7124;-86
2022/11/05 14:58:37;;;;;;;;;;;;;;;;;;5013079;28;7215;-85
2022/11/05 15:01:29;;;;;;;;;;;;;;;;;;5013797;28;8618;-85
2022/11/05 15:04:20;;;;;;;;;;;;;;;;;;5013292;28;8416;-84
2022/11/05 15:07:01;;;;;;;;;;;;;;;;;;5013072;28;8791;-86
2022/11/05 15:09:39;;;;;;;;;;;;;;;;;;5013343;28;7150;-86
2022/11/05 15:12:21;;;;;;;;;;;;;;;;;;5026721;28;8330;-88
2022/11/05 15:15:05;;;;;;;;;;;;;;;;;;5034163;28;7272;-88
2022/11/05 15:17:38;;;;;;;;;;;;;;;;;;5050420;28;8742;-88
2022/11/05 15:20:09;;;;;;;;;;;;;;;;;;5033950;28;8416;-89
2022/11/05 15:22:37;;;;;;;;;;;;;;;;;;5033359;28;7447;-88
2022/11/05 15:25:04;;;;;;;;;;;;;;;;;;5034801;28;8476;-89
2022/11/05 15:27:47;;;;;;;;;;;;;;;;;;5034285;28;8542;-89
2022/11/05 15:30:16;;;;;;;;;;;;;;;;;;5033956;28;8427;-87
2022/11/05 15:32:42;;;;;;;;;;;;;;;;;;5034329;28;7003;-87
2022/11/05 15:35:19;;;;;;;;;;;;;;;;;;5033500;28;8644;-89
2022/11/05 15:37:46;;;;;;;;;;;;;;;;;;5034123;28;7140;-87
2022/11/05 15:40:38;;;;;;;;;;;;;;;;;;5033762;28;7188;-87
2022/11/05 15:43:09;;;;;;;;;;;;;;;;;;5049631;28;8415;-86
2022/11/05 15:45:35;;;;;;;;;;;;;;;;;;5033531;28;8289;-87
2022/11/05 15:48:00;;;;;;;;;;;;;;;;;;5034057;28;8426;-87
2022/11/05 15:50:26;;;;;;;;;;;;;;;;;;5034301;28;8721;-87
2022/11/05 15:52:53;;;;;;;;;;;;;;;;;;5034780;28;8736;-88
2022/11/05 15:55:25;;;;;;;;;;;;;;;;;;5034594;28;7271;-85
2022/11/05 15:57:58;;;;;;;;;;;;;;;;;;5034621;28;8461;-87
2022/11/05 16:00:26;;;;;;;;;;;;;;;;;;5033014;28;8949;-87
2022/11/05 16:02:55;;;;;;;;;;;;;;;;;;5034961;28;8505;-88
2022/11/05 16:05:21;;;;;;;;;;;;;;;;;;5035149;28;8753;-87
2022/11/05 16:07:47;;;;;;;;;;;;;;;;;;5030232;28;8447;-87
2022/11/05 16:10:18;;;;;;;;;;;;;;;;;;5046986;28;7083;-84
2022/11/05 16:12:44;;;;;;;;;;;;;;;;;;5033076;28;7067;-84
2022/11/05 16:15:10;;;;;;;;;;;;;;;;;;5033640;28;8762;-84
2022/11/05 16:17:38;;;;;;;;;;;;;;;;;;5050216;28;8412;-84
2022/11/05 16:20:18;;;;;;;;;;;;;;;;;;5049819;28;8722;-84
2022/11/05 16:22:48;;;;;;;;;;;;;;;;;;5028330;28;7196;-84
2022/11/05 16:25:20;;;;;;;;;;;;;;;;;;5030367;28;7179;-87
2022/11/05 16:27:46;;;;;;;;;;;;;;;;;;5029376;28;8695;-87
2022/11/05 16:30:17;;;;;;;;;;;;;;;;;;5029848;28;8751;-86
2022/11/05 16:32:42;;;;;;;;;;;;;;;;;;5032851;28;8970;-87
2022/11/05 16:35:20;;;;;;;;;;;;;;;;;;5034381;28;7432;-87
2022/11/05 16:37:46;;;;;;;;;;;;;;;;;;5036433;28;8743;-87
2022/11/05 16:40:13;;;;;;;;;;;;;;;;;;5017745;28;8433;-87
2022/11/05 16:42:39;;;;;;;;;;;;;;;;;;5033859;28;8440;-86
2022/11/05 16:45:05;;;;;;;;;;;;;;;;;;5032084;28;9220;-87
2022/11/05 16:47:31;;;;;;;;;;;;;;;;;;5016904;28;8401;-87
2022/11/05 16:49:56;;;;;;;;;;;;;;;;;;5032994;28;8760;-87
2022/11/05 16:52:22;;;;;;;;;;;;;;;;;;5033228;28;8486;-87
2022/11/05 16:54:47;;;;;;;;;;;;;;;;;;5033166;28;8460;-87
2022/11/05 16:57:30;;;;;;;;;;;;;;;;;;5033422;28;8377;-87
2022/11/05 16:59:57;;;;;;;;;;;;;;;;;;5033096;28;8591;-88
2022/11/05 17:02:23;;;;;;;;;;;;;;;;;;5051377;28;8536;-87
2022/11/05 17:04:48;;;;;;;;;;;;;;;;;;5035963;28;6885;-88
2022/11/05 17:07:14;;;;;;;;;;;;;;;;;;5035472;28;8770;-86
2022/11/05 17:09:39;;;;;;;;;;;;;;;;;;5036309;28;8287;-87
2022/11/05 17:12:05;;;;;;;;;;;;;;;;;;5035951;28;8392;-87
2022/11/05 17:14:31;;;;;;;;;;;;;;;;;;5036126;28;8683;-86
2022/11/05 17:16:58;;;;;;;;;;;;;;;;;;5036249;28;7397;-86
2022/11/05 17:19:23;;;;;;;;;;;;;;;;;;5035665;28;8656;-88
2022/11/05 17:21:49;;;;;;;;;;;;;;;;;;5036301;28;7352;-86
2022/11/05 17:24:15;;;;;;;;;;;;;;;;;;5038362;28;7126;-85
2022/11/05 17:26:40;;;;;;;;;;;;;;;;;;5037180;28;7149;-87
2022/11/05 17:29:06;;;;;;;;;;;;;;;;;;5036212;28;8649;-87
2022/11/05 17:31:31;;;;;;;;;;;;;;;;;;5036328;28;8613;-87
2022/11/05 17:33:57;;;;;;;;;;;;;;;;;;5035641;28;8779;-88
2022/11/05 17:36:23;;;;;;;;;;;;;;;;;;5035755;28;7030;-89
2022/11/05 17:38:48;;;;;;;;;;;;;;;;;;5035929;28;7025;-88
2022/11/05 17:41:16;;;;;;;;;;;;;;;;;;5035884;28;8483;-88
2022/11/05 17:43:42;;;;;;;;;;;;;;;;;;5035397;28;8890;-88
2022/11/05 17:46:15;;;;;;;;;;;;;;;;;;5033612;28;9391;-89
2022/11/05 17:48:41;;;;;;;;;;;;;;;;;;5035583;28;7219;-88
2022/11/05 17:51:08;;;;;;;;;;;;;;;;;;5035550;28;8731;-88
2022/11/05 17:53:34;;;;;;;;;;;;;;;;;;5035829;28;8348;-88
2022/11/05 17:56:03;;;;;;;;;;;;;;;;;;5035490;28;8394;-88
2022/11/05 17:58:28;;;;;;;;;;;;;;;;;;5035246;28;8401;-86
2022/11/05 18:00:54;;;;;;;;;;;;;;;;;;5035585;28;9561;-88
2022/11/05 18:03:19;;;;;;;;;;;;;;;;;;5035336;28;8300;-88
2022/11/05 18:05:45;;;;;;;;;;;;;;;;;;5032121;28;8379;-88
2022/11/05 18:08:11;;;;;;;;;;;;;;;;;;5041610;28;8408;-89